Time;durP1;ratioP1;P1;durP2;ratioP2;P2;SDS_P1;SDS_P2;PMS_P1;PMS_P2;Temp;Humidity;BMP_temperature;BMP_pressure;BME280_temperature;BME280_humidity;BME280_pressure;Samples;Min_cycle;Max_cycle;Signal;HPM_P1;HPM_P2
2023/10/24 00:01:52;;;;;;;20.23;7.68;;;;;;;;;;5075068;28;20048;-67
2023/10/24 00:04:20;;;;;;;20.85;7.90;;;;;;;;;;5073702;28;20574;-67
2023/10/24 00:06:48;;;;;;;18.33;6.78;;;;;;;;;;5074970;28;20138;-67
2023/10/24 00:09:15;;;;;;;18.23;6.20;;;;;;;;;;5073825;28;20504;-67
2023/10/24 00:11:43;;;;;;;17.80;6.07;;;;;;;;;;5074849;28;20108;-67
2023/10/24 00:14:10;;;;;;;21.33;7.70;;;;;;;;;;5074792;28;20051;-67
2023/10/24 00:16:38;;;;;;;16.80;7.30;;;;;;;;;;5074944;28;20131;-67
2023/10/24 00:19:05;;;;;;;18.20;6.95;;;;;;;;;;5073595;28;20040;-67
2023/10/24 00:21:33;;;;;;;16.95;6.40;;;;;;;;;;5074789;28;20064;-67
2023/10/24 00:24:00;;;;;;;13.05;6.85;;;;;;;;;;5074316;28;20443;-67
2023/10/24 00:26:28;;;;;;;18.13;6.85;;;;;;;;;;5074461;28;20442;-67
2023/10/24 00:28:56;;;;;;;19.58;7.40;;;;;;;;;;5073513;28;20444;-67
2023/10/24 00:31:24;;;;;;;21.92;7.63;;;;;;;;;;5073054;28;20059;-67
2023/10/24 00:33:51;;;;;;;16.23;6.85;;;;;;;;;;5073126;28;20044;-67
2023/10/24 00:36:19;;;;;;;21.08;6.90;;;;;;;;;;5073227;28;20508;-67
2023/10/24 00:38:47;;;;;;;17.08;7.22;;;;;;;;;;5073011;28;20044;-67
2023/10/24 00:41:14;;;;;;;17.35;6.70;;;;;;;;;;5073335;28;20395;-67
2023/10/24 00:43:42;;;;;;;19.63;7.80;;;;;;;;;;5074122;28;20041;-67
2023/10/24 00:46:10;;;;;;;17.77;7.43;;;;;;;;;;5072937;28;20048;-67
2023/10/24 00:48:38;;;;;;;19.83;6.55;;;;;;;;;;5074129;28;20041;-67
2023/10/24 00:51:06;;;;;;;14.52;6.72;;;;;;;;;;5072922;28;20494;-67
2023/10/24 00:53:33;;;;;;;18.52;6.15;;;;;;;;;;5073374;28;20418;-67
2023/10/24 00:56:02;;;;;;;18.77;5.57;;;;;;;;;;5072764;28;20410;-68
2023/10/24 00:58:29;;;;;;;18.80;6.53;;;;;;;;;;5073887;28;20094;-67
2023/10/24 01:00:59;;;;;;;18.20;6.13;;;;;;;;;;5071864;28;20452;-67
2023/10/24 01:03:27;;;;;;;18.20;6.40;;;;;;;;;;5074117;28;20390;-68
2023/10/24 01:05:55;;;;;;;16.55;6.28;;;;;;;;;;5074583;28;20497;-68
2023/10/24 01:08:23;;;;;;;14.45;6.00;;;;;;;;;;5072498;28;20136;-67
2023/10/24 01:10:50;;;;;;;21.38;7.75;;;;;;;;;;5072494;28;20044;-66
2023/10/24 01:13:18;;;;;;;14.90;6.20;;;;;;;;;;5072405;28;20075;-67
2023/10/24 01:15:45;;;;;;;22.52;8.40;;;;;;;;;;5055784;28;20494;-67
2023/10/24 01:18:13;;;;;;;16.10;7.20;;;;;;;;;;5072208;28;20051;-67
2023/10/24 01:20:40;;;;;;;19.92;7.05;;;;;;;;;;5072319;28;20036;-67
2023/10/24 01:23:11;;;;;;;20.20;7.05;;;;;;;;;;5073065;28;20047;-68
2023/10/24 01:25:40;;;;;;;13.27;6.05;;;;;;;;;;5073140;28;20044;-67
2023/10/24 01:28:08;;;;;;;16.60;7.50;;;;;;;;;;5072097;28;20048;-67
2023/10/24 01:30:36;;;;;;;16.88;7.60;;;;;;;;;;5071896;28;20049;-67
2023/10/24 01:33:04;;;;;;;18.02;6.78;;;;;;;;;;5071874;28;20083;-68
2023/10/24 01:35:32;;;;;;;19.00;7.53;;;;;;;;;;5073209;28;20036;-67
2023/10/24 01:38:00;;;;;;;17.27;7.78;;;;;;;;;;5071811;28;20036;-67
2023/10/24 01:40:27;;;;;;;19.75;8.73;;;;;;;;;;5071708;28;20532;-67
2023/10/24 01:42:55;;;;;;;17.60;7.63;;;;;;;;;;5071639;28;20041;-67
2023/10/24 01:45:22;;;;;;;19.35;7.63;;;;;;;;;;5071511;28;20049;-67
2023/10/24 01:47:50;;;;;;;18.38;7.45;;;;;;;;;;5071964;28;20047;-67
2023/10/24 01:50:18;;;;;;;24.27;7.63;;;;;;;;;;5072892;28;20032;-67
2023/10/24 01:52:45;;;;;;;20.95;7.35;;;;;;;;;;5071526;28;20055;-67
2023/10/24 01:55:13;;;;;;;22.10;7.57;;;;;;;;;;5073209;28;20045;-68
2023/10/24 01:57:40;;;;;;;20.70;7.78;;;;;;;;;;5056027;28;20513;-67
2023/10/24 02:00:23;;;;;;;17.80;7.32;;;;;;;;;;5049511;28;20063;-67
2023/10/24 02:02:53;;;;;;;17.58;8.07;;;;;;;;;;5071759;28;20040;-67
2023/10/24 02:05:21;;;;;;;18.80;7.15;;;;;;;;;;5071334;28;20040;-68
2023/10/24 02:07:49;;;;;;;20.42;7.72;;;;;;;;;;5072745;28;20120;-68
2023/10/24 02:10:17;;;;;;;13.77;6.55;;;;;;;;;;5071367;28;20520;-68
2023/10/24 02:12:46;;;;;;;18.25;6.35;;;;;;;;;;5072465;28;20048;-68
2023/10/24 02:15:14;;;;;;;16.17;6.28;;;;;;;;;;5072750;28;20036;-68
2023/10/24 02:17:41;;;;;;;18.20;6.47;;;;;;;;;;5071351;28;20049;-67
2023/10/24 02:20:09;;;;;;;17.95;6.72;;;;;;;;;;5071344;28;20494;-67
2023/10/24 02:22:37;;;;;;;19.30;6.78;;;;;;;;;;5072418;28;20051;-67
2023/10/24 02:25:04;;;;;;;17.55;6.88;;;;;;;;;;5071058;28;20052;-67
2023/10/24 02:27:34;;;;;;;19.83;7.43;;;;;;;;;;5071294;28;20041;-68
2023/10/24 02:30:02;;;;;;;17.48;6.93;;;;;;;;;;5072430;28;20044;-67
2023/10/24 02:32:31;;;;;;;18.88;7.22;;;;;;;;;;5054901;28;20128;-67
2023/10/24 02:34:59;;;;;;;13.48;6.57;;;;;;;;;;5071040;28;20045;-67
2023/10/24 02:37:26;;;;;;;16.17;6.72;;;;;;;;;;5071173;28;20044;-67
2023/10/24 02:39:54;;;;;;;19.40;7.13;;;;;;;;;;5071073;28;20074;-67
2023/10/24 02:42:21;;;;;;;22.80;8.65;;;;;;;;;;5071093;28;20045;-67
2023/10/24 02:44:49;;;;;;;26.55;9.50;;;;;;;;;;5070970;28;20143;-68
2023/10/24 02:47:17;;;;;;;29.80;11.35;;;;;;;;;;5071211;28;20041;-68
2023/10/24 02:49:44;;;;;;;31.67;10.90;;;;;;;;;;5072285;28;20047;-67
2023/10/24 02:52:12;;;;;;;41.67;12.50;;;;;;;;;;5070788;28;20044;-68
2023/10/24 02:54:40;;;;;;;46.60;15.65;;;;;;;;;;5070851;28;20057;-67
2023/10/24 02:57:07;;;;;;;41.95;14.60;;;;;;;;;;5070906;28;20036;-67
2023/10/24 02:59:35;;;;;;;29.60;10.75;;;;;;;;;;5072149;28;20045;-68
2023/10/24 03:02:02;;;;;;;28.05;8.90;;;;;;;;;;5071492;28;20036;-68
2023/10/24 03:04:30;;;;;;;30.88;10.57;;;;;;;;;;5072128;28;20505;-67
2023/10/24 03:06:57;;;;;;;25.60;9.07;;;;;;;;;;5070939;28;20044;-68
2023/10/24 03:09:25;;;;;;;31.77;9.43;;;;;;;;;;5070617;28;20094;-67
2023/10/24 03:11:52;;;;;;;25.10;7.93;;;;;;;;;;5070824;28;20040;-67
2023/10/24 03:14:20;;;;;;;22.17;6.95;;;;;;;;;;5070694;28;20132;-68
2023/10/24 03:16:48;;;;;;;17.33;7.22;;;;;;;;;;5070744;28;20047;-68
2023/10/24 03:19:16;;;;;;;23.08;6.38;;;;;;;;;;5070533;28;20051;-68
2023/10/24 03:21:44;;;;;;;19.83;7.00;;;;;;;;;;5071805;28;20036;-67
2023/10/24 03:24:12;;;;;;;22.58;6.70;;;;;;;;;;5073106;28;20040;-68
2023/10/24 03:26:39;;;;;;;20.20;8.10;;;;;;;;;;5074195;28;20494;-67
2023/10/24 03:29:06;;;;;;;14.95;7.05;;;;;;;;;;5074381;28;20102;-67
2023/10/24 03:31:34;;;;;;;24.40;7.07;;;;;;;;;;5074523;28;20048;-68
2023/10/24 03:34:03;;;;;;;23.23;7.03;;;;;;;;;;5074351;28;20410;-68
2023/10/24 03:36:30;;;;;;;16.95;7.13;;;;;;;;;;5074420;28;20093;-68
2023/10/24 03:38:59;;;;;;;18.10;7.50;;;;;;;;;;5082209;28;20036;-68
2023/10/24 03:41:26;;;;;;;18.10;7.68;;;;;;;;;;5095505;28;20486;-68
2023/10/24 03:43:54;;;;;;;23.55;7.45;;;;;;;;;;5095617;28;20055;-67
2023/10/24 03:46:22;;;;;;;24.23;8.05;;;;;;;;;;5095703;28;20391;-67
2023/10/24 03:48:49;;;;;;;21.48;8.07;;;;;;;;;;5091992;28;20032;-67
2023/10/24 03:51:17;;;;;;;31.42;8.43;;;;;;;;;;5083775;28;20040;-67
2023/10/24 03:53:44;;;;;;;24.20;8.20;;;;;;;;;;5074859;28;20063;-67
2023/10/24 03:56:12;;;;;;;26.65;8.93;;;;;;;;;;5075075;28;20044;-68
2023/10/24 03:58:39;;;;;;;21.75;9.13;;;;;;;;;;5075083;28;20040;-67
2023/10/24 04:01:07;;;;;;;28.52;7.82;;;;;;;;;;5075034;28;20068;-68
2023/10/24 04:03:35;;;;;;;24.55;7.85;;;;;;;;;;5075041;28;20048;-68
2023/10/24 04:06:02;;;;;;;21.08;8.40;;;;;;;;;;5074391;28;20110;-68
2023/10/24 04:08:30;;;;;;;21.67;8.80;;;;;;;;;;5074982;28;20040;-68
2023/10/24 04:10:57;;;;;;;24.50;9.45;;;;;;;;;;5074672;28;20405;-68
2023/10/24 04:13:25;;;;;;;21.85;8.13;;;;;;;;;;5072847;28;20052;-68
2023/10/24 04:15:59;;;;;;;30.70;8.38;;;;;;;;;;5073829;28;20407;-68
2023/10/24 04:18:27;;;;;;;34.03;9.70;;;;;;;;;;5074341;28;20479;-68
2023/10/24 04:20:55;;;;;;;28.73;10.57;;;;;;;;;;5074153;28;20285;-67
2023/10/24 04:23:22;;;;;;;34.05;9.68;;;;;;;;;;5073444;28;20045;-68
2023/10/24 04:25:49;;;;;;;28.17;10.40;;;;;;;;;;5074481;28;20045;-67
2023/10/24 04:28:17;;;;;;;32.95;11.52;;;;;;;;;;5074594;28;20037;-67
2023/10/24 04:30:44;;;;;;;44.22;14.07;;;;;;;;;;5074476;28;20040;-68
2023/10/24 04:33:12;;;;;;;37.85;13.75;;;;;;;;;;5074408;28;20064;-67
2023/10/24 04:35:43;;;;;;;38.17;14.77;;;;;;;;;;5073070;28;20392;-67
2023/10/24 04:38:11;;;;;;;45.97;17.10;;;;;;;;;;5074822;28;20413;-68
2023/10/24 04:40:40;;;;;;;72.18;30.73;;;;;;;;;;5074314;28;20043;-68
2023/10/24 04:43:07;;;;;;;104.47;45.75;;;;;;;;;;5073085;28;20044;-68
2023/10/24 04:45:38;;;;;;;92.72;35.65;;;;;;;;;;5072877;28;20047;-68
2023/10/24 04:48:06;;;;;;;96.93;36.05;;;;;;;;;;5073781;28;20044;-68
2023/10/24 04:50:38;;;;;;;93.05;37.88;;;;;;;;;;5073786;28;20037;-68
2023/10/24 04:53:06;;;;;;;75.18;30.30;;;;;;;;;;5073053;28;20383;-69
2023/10/24 04:55:35;;;;;;;63.28;24.92;;;;;;;;;;5073420;28;20048;-68
2023/10/24 04:58:03;;;;;;;71.57;24.58;;;;;;;;;;5073815;28;20178;-68
2023/10/24 05:00:31;;;;;;;69.03;27.50;;;;;;;;;;5074291;28;20048;-69
2023/10/24 05:02:59;;;;;;;71.43;27.75;;;;;;;;;;5073993;28;20533;-70
2023/10/24 05:05:27;;;;;;;64.10;27.75;;;;;;;;;;5073920;28;20135;-69
2023/10/24 05:07:55;;;;;;;90.13;27.25;;;;;;;;;;5073932;28;20041;-69
2023/10/24 05:10:22;;;;;;;61.67;25.38;;;;;;;;;;5072961;28;20041;-69
2023/10/24 05:12:50;;;;;;;59.17;23.60;;;;;;;;;;5072574;28;20087;-69
2023/10/24 05:15:18;;;;;;;71.05;25.00;;;;;;;;;;5073629;28;20044;-69
2023/10/24 05:17:45;;;;;;;65.55;24.58;;;;;;;;;;5073707;28;20046;-69
2023/10/24 05:20:16;;;;;;;67.47;25.00;;;;;;;;;;5073560;28;20040;-69
2023/10/24 05:22:44;;;;;;;63.75;25.70;;;;;;;;;;5073519;28;20483;-68
2023/10/24 05:25:12;;;;;;;61.83;24.25;;;;;;;;;;5073494;28;20264;-69
2023/10/24 05:27:40;;;;;;;63.15;22.98;;;;;;;;;;5073426;28;20064;-67
2023/10/24 05:30:10;;;;;;;69.72;22.90;;;;;;;;;;5072225;28;20044;-68
2023/10/24 05:32:37;;;;;;;54.75;22.25;;;;;;;;;;5073275;28;20048;-67
2023/10/24 05:35:05;;;;;;;52.15;19.10;;;;;;;;;;5073591;28;20040;-68
2023/10/24 05:37:32;;;;;;;46.58;18.60;;;;;;;;;;5073332;28;20048;-68
2023/10/24 05:40:00;;;;;;;63.33;20.05;;;;;;;;;;5073248;28;20115;-68
2023/10/24 05:42:28;;;;;;;32.03;13.85;;;;;;;;;;5072019;28;20041;-68
2023/10/24 05:44:55;;;;;;;34.65;16.25;;;;;;;;;;5073205;28;20063;-68
2023/10/24 05:47:23;;;;;;;42.97;16.80;;;;;;;;;;5072797;28;20040;-68
2023/10/24 05:49:52;;;;;;;47.75;17.83;;;;;;;;;;5073119;28;20051;-68
2023/10/24 05:52:20;;;;;;;40.85;17.27;;;;;;;;;;5071879;28;20045;-69
2023/10/24 05:54:49;;;;;;;35.47;15.20;;;;;;;;;;5072850;28;20037;-68
2023/10/24 05:57:17;;;;;;;28.17;13.45;;;;;;;;;;5071727;28;20048;-69
2023/10/24 05:59:44;;;;;;;35.03;13.95;;;;;;;;;;5071796;28;20521;-69
2023/10/24 06:02:12;;;;;;;37.63;15.68;;;;;;;;;;5072847;28;20048;-69
2023/10/24 06:04:40;;;;;;;41.50;15.52;;;;;;;;;;5072881;28;20068;-69
2023/10/24 06:07:08;;;;;;;41.30;15.85;;;;;;;;;;5072696;28;20036;-69
2023/10/24 06:09:35;;;;;;;42.88;16.00;;;;;;;;;;5071549;28;20036;-67
2023/10/24 06:12:03;;;;;;;36.42;15.57;;;;;;;;;;5072774;28;20049;-69
2023/10/24 06:14:33;;;;;;;42.00;16.70;;;;;;;;;;5072748;28;20390;-68
2023/10/24 06:17:00;;;;;;;42.75;17.00;;;;;;;;;;5072681;28;20037;-68
2023/10/24 06:19:28;;;;;;;41.15;17.08;;;;;;;;;;5072637;28;20391;-68
2023/10/24 06:21:55;;;;;;;36.05;16.02;;;;;;;;;;5072603;28;20048;-68
2023/10/24 06:24:23;;;;;;;46.30;16.95;;;;;;;;;;5071707;28;20040;-68
2023/10/24 06:26:53;;;;;;;40.90;17.08;;;;;;;;;;5072459;28;20044;-69
2023/10/24 06:29:22;;;;;;;39.38;15.85;;;;;;;;;;5072712;28;20137;-69
2023/10/24 06:31:50;;;;;;;45.17;17.60;;;;;;;;;;5072463;28;20540;-69
2023/10/24 06:34:18;;;;;;;36.92;16.05;;;;;;;;;;5072535;28;20147;-69
2023/10/24 06:36:45;;;;;;;36.15;17.85;;;;;;;;;;5072483;28;20047;-70
2023/10/24 06:39:13;;;;;;;45.05;17.90;;;;;;;;;;5072492;28;20123;-69
2023/10/24 06:41:40;;;;;;;46.33;17.05;;;;;;;;;;5072754;28;20033;-69
2023/10/24 06:44:12;;;;;;;42.45;17.25;;;;;;;;;;5071010;28;20044;-69
2023/10/24 06:46:39;;;;;;;51.20;17.60;;;;;;;;;;5072404;28;20500;-68
2023/10/24 06:49:08;;;;;;;39.13;18.38;;;;;;;;;;5072349;28;20493;-69
2023/10/24 06:51:35;;;;;;;40.00;17.48;;;;;;;;;;5072359;28;20033;-69
2023/10/24 06:54:03;;;;;;;40.78;16.67;;;;;;;;;;5072199;28;20049;-70
2023/10/24 06:56:30;;;;;;;37.10;15.50;;;;;;;;;;5072286;28;20036;-68
2023/10/24 06:58:58;;;;;;;46.90;17.27;;;;;;;;;;5073033;28;20123;-69
2023/10/24 07:01:26;;;;;;;44.25;16.55;;;;;;;;;;5076123;28;20044;-69
2023/10/24 07:03:54;;;;;;;55.75;16.02;;;;;;;;;;5076264;28;20494;-68
2023/10/24 07:06:22;;;;;;;39.25;15.30;;;;;;;;;;5075962;28;20036;-68
2023/10/24 07:08:51;;;;;;;42.22;17.88;;;;;;;;;;5076168;28;20119;-67
2023/10/24 07:11:21;;;;;;;58.22;19.80;;;;;;;;;;5075991;28;20128;-68
2023/10/24 07:13:49;;;;;;;50.95;19.83;;;;;;;;;;5075775;28;20049;-69
2023/10/24 07:16:17;;;;;;;43.75;18.33;;;;;;;;;;5076054;28;20124;-68
2023/10/24 07:18:45;;;;;;;46.30;17.67;;;;;;;;;;5074578;28;20044;-68
2023/10/24 07:21:15;;;;;;;39.58;16.95;;;;;;;;;;5075722;28;20059;-68
2023/10/24 07:23:42;;;;;;;34.25;15.75;;;;;;;;;;5074708;28;20410;-68
2023/10/24 07:26:11;;;;;;;40.38;19.33;;;;;;;;;;5075653;28;20433;-68
2023/10/24 07:28:38;;;;;;;54.83;22.35;;;;;;;;;;5075865;28;20040;-68
2023/10/24 07:31:06;;;;;;;49.33;20.05;;;;;;;;;;5075984;28;20044;-69
2023/10/24 07:33:33;;;;;;;42.58;20.95;;;;;;;;;;5075664;28;20475;-69
2023/10/24 07:36:04;;;;;;;42.38;20.17;;;;;;;;;;5075651;28;20045;-69
2023/10/24 07:38:32;;;;;;;43.00;18.60;;;;;;;;;;5075537;28;20049;-67
2023/10/24 07:41:00;;;;;;;46.35;20.95;;;;;;;;;;5075504;28;20040;-68
2023/10/24 07:43:28;;;;;;;44.55;19.58;;;;;;;;;;5075485;28;20127;-69
2023/10/24 07:45:55;;;;;;;51.22;20.58;;;;;;;;;;5075436;28;20074;-69
2023/10/24 07:48:24;;;;;;;47.25;19.50;;;;;;;;;;5074162;28;20043;-69
2023/10/24 07:50:52;;;;;;;43.17;19.67;;;;;;;;;;5075351;28;20040;-68
2023/10/24 07:53:20;;;;;;;50.20;19.42;;;;;;;;;;5075243;28;20141;-68
2023/10/24 07:55:48;;;;;;;46.60;18.25;;;;;;;;;;5075189;28;20037;-67
2023/10/24 07:58:16;;;;;;;36.88;15.13;;;;;;;;;;5074051;28;20047;-69
2023/10/24 08:00:44;;;;;;;32.75;13.45;;;;;;;;;;5074014;28;20090;-67
2023/10/24 08:03:13;;;;;;;21.02;12.18;;;;;;;;;;5075045;28;20043;-68
2023/10/24 08:05:41;;;;;;;24.73;12.82;;;;;;;;;;5075077;28;20185;-68
2023/10/24 08:08:09;;;;;;;28.52;12.77;;;;;;;;;;5074930;28;20509;-68
2023/10/24 08:10:36;;;;;;;30.92;12.05;;;;;;;;;;5074665;28;20037;-68
2023/10/24 08:13:04;;;;;;;23.27;12.10;;;;;;;;;;5074987;28;20045;-68
2023/10/24 08:15:32;;;;;;;22.90;11.00;;;;;;;;;;5074731;28;20032;-68
2023/10/24 08:18:00;;;;;;;25.27;12.07;;;;;;;;;;5074810;28;20110;-69
2023/10/24 08:20:27;;;;;;;28.95;11.30;;;;;;;;;;5075123;28;20075;-68
2023/10/24 08:22:55;;;;;;;21.75;11.55;;;;;;;;;;5073607;28;20032;-68
2023/10/24 08:25:22;;;;;;;33.30;12.48;;;;;;;;;;5074712;28;20551;-68
2023/10/24 08:27:50;;;;;;;28.23;11.25;;;;;;;;;;5074608;28;20390;-68
2023/10/24 08:30:17;;;;;;;25.90;12.18;;;;;;;;;;5074564;28;20490;-69
2023/10/24 08:32:45;;;;;;;22.45;10.05;;;;;;;;;;5074486;28;20040;-69
2023/10/24 08:35:13;;;;;;;24.73;11.00;;;;;;;;;;5074845;28;20115;-68
2023/10/24 08:37:40;;;;;;;18.63;9.15;;;;;;;;;;5074535;28;20131;-68
2023/10/24 08:40:08;;;;;;;15.85;7.72;;;;;;;;;;5074376;28;20051;-69
2023/10/24 08:42:39;;;;;;;15.45;7.55;;;;;;;;;;5074478;28;20047;-68
2023/10/24 08:45:07;;;;;;;16.70;7.70;;;;;;;;;;5074330;28;20458;-68
2023/10/24 08:47:35;;;;;;;16.92;7.22;;;;;;;;;;5074238;28;20137;-68
2023/10/24 08:50:03;;;;;;;14.32;6.63;;;;;;;;;;5073998;28;20076;-69
2023/10/24 08:52:31;;;;;;;16.65;7.10;;;;;;;;;;5074157;28;20041;-68
2023/10/24 08:55:04;;;;;;;16.27;7.18;;;;;;;;;;5074019;28;20044;-70
2023/10/24 08:57:37;;;;;;;17.30;7.50;;;;;;;;;;5074090;28;20097;-70
2023/10/24 09:00:07;;;;;;;15.13;7.55;;;;;;;;;;5074083;28;20036;-71
2023/10/24 09:02:35;;;;;;;19.27;7.70;;;;;;;;;;5074346;28;20131;-72
2023/10/24 09:05:03;;;;;;;14.18;7.20;;;;;;;;;;5074076;28;20036;-71
2023/10/24 09:07:31;;;;;;;16.25;7.38;;;;;;;;;;5073834;28;20049;-69
2023/10/24 09:09:58;;;;;;;16.58;7.10;;;;;;;;;;5106393;28;20049;-68
2023/10/24 09:12:28;;;;;;;15.13;5.90;;;;;;;;;;5073848;28;20711;-68
2023/10/24 09:14:57;;;;;;;16.48;8.25;;;;;;;;;;5073650;28;20047;-70
2023/10/24 09:17:25;;;;;;;12.02;5.57;;;;;;;;;;5073979;28;20040;-69
2023/10/24 09:19:55;;;;;;;13.93;7.28;;;;;;;;;;5073448;28;20128;-69
2023/10/24 09:22:23;;;;;;;13.48;6.75;;;;;;;;;;5072861;28;20115;-69
2023/10/24 09:24:51;;;;;;;15.15;6.95;;;;;;;;;;5072284;28;20417;-70
2023/10/24 09:27:23;;;;;;;11.15;6.57;;;;;;;;;;5073072;28;20045;-70
2023/10/24 09:29:51;;;;;;;27.67;6.68;;;;;;;;;;5073400;28;20062;-69
2023/10/24 09:32:22;;;;;;;13.82;6.00;;;;;;;;;;5073372;28;20059;-68
2023/10/24 09:34:50;;;;;;;14.23;7.68;;;;;;;;;;5073256;28;20045;-69
2023/10/24 09:37:18;;;;;;;11.98;7.50;;;;;;;;;;5073300;28;20083;-69
2023/10/24 09:39:59;;;;;;;17.33;7.40;;;;;;;;;;5073495;28;20040;-68
2023/10/24 09:42:27;;;;;;;16.38;8.32;;;;;;;;;;5073280;28;20084;-69
2023/10/24 09:45:00;;;;;;;17.23;7.47;;;;;;;;;;5071757;28;20090;-69
2023/10/24 09:47:32;;;;;;;18.42;7.82;;;;;;;;;;5072923;28;20048;-67
2023/10/24 09:50:00;;;;;;;15.18;7.00;;;;;;;;;;5073003;28;20041;-68
2023/10/24 09:52:29;;;;;;;20.25;8.43;;;;;;;;;;5072605;28;20066;-69
2023/10/24 09:54:58;;;;;;;14.15;6.53;;;;;;;;;;5071527;28;20048;-73
2023/10/24 09:57:27;;;;;;;15.10;5.82;;;;;;;;;;5072872;28;20076;-69
2023/10/24 09:59:58;;;;;;;14.30;6.72;;;;;;;;;;5072940;28;20045;-68
2023/10/24 10:02:26;;;;;;;16.50;7.03;;;;;;;;;;5072934;28;20123;-69
2023/10/24 10:04:54;;;;;;;17.98;7.80;;;;;;;;;;5072753;28;20107;-69
2023/10/24 10:07:25;;;;;;;16.92;6.53;;;;;;;;;;5071419;28;20479;-70
2023/10/24 10:09:55;;;;;;;18.17;7.32;;;;;;;;;;5073176;28;20060;-70
2023/10/24 10:12:23;;;;;;;10.18;5.65;;;;;;;;;;5072565;28;20551;-69
2023/10/24 10:15:03;;;;;;;15.05;6.65;;;;;;;;;;5071400;28;20048;-69
2023/10/24 10:17:43;;;;;;;12.63;4.60;;;;;;;;;;5071590;28;20051;-68
2023/10/24 10:20:20;;;;;;;11.40;4.75;;;;;;;;;;5072534;28;20501;-70
2023/10/24 10:23:06;;;;;;;15.60;6.30;;;;;;;;;;5072587;28;20041;-70
2023/10/24 10:25:45;;;;;;;15.15;5.50;;;;;;;;;;5071374;28;20521;-69
2023/10/24 10:28:13;;;;;;;9.02;4.65;;;;;;;;;;5071154;28;20048;-69
2023/10/24 10:30:48;;;;;;;9.05;4.90;;;;;;;;;;5071334;28;20085;-68
2023/10/24 10:33:24;;;;;;;13.48;5.60;;;;;;;;;;5072499;28;20044;-69
2023/10/24 10:35:55;;;;;;;10.13;4.10;;;;;;;;;;5071266;28;20094;-69
2023/10/24 10:38:44;;;;;;;11.80;5.43;;;;;;;;;;5072428;28;20055;-69
2023/10/24 10:41:18;;;;;;;13.65;5.18;;;;;;;;;;5054945;28;20045;-70
2023/10/24 10:43:45;;;;;;;13.20;4.40;;;;;;;;;;5072657;28;20379;-70
2023/10/24 10:46:26;;;;;;;8.40;4.07;;;;;;;;;;5072314;28;20043;-70
2023/10/24 10:48:59;;;;;;;8.88;5.03;;;;;;;;;;5072434;28;20139;-70
2023/10/24 10:51:28;;;;;;;11.20;5.15;;;;;;;;;;5072186;28;20060;-69
2023/10/24 10:53:56;;;;;;;12.23;5.40;;;;;;;;;;5070915;28;20055;-70
2023/10/24 10:56:30;;;;;;;17.88;5.45;;;;;;;;;;5072370;28;20414;-71
2023/10/24 10:59:07;;;;;;;12.05;5.50;;;;;;;;;;5072407;28;20071;-70
2023/10/24 11:01:46;;;;;;;11.60;5.95;;;;;;;;;;5070941;28;20040;-71
2023/10/24 11:04:14;;;;;;;14.43;4.78;;;;;;;;;;5071221;28;20128;-69
2023/10/24 11:06:50;;;;;;;13.50;4.50;;;;;;;;;;5070953;28;20036;-69
2023/10/24 11:09:20;;;;;;;11.80;5.20;;;;;;;;;;5072247;28;20490;-70
2023/10/24 11:11:48;;;;;;;14.32;4.50;;;;;;;;;;5072141;28;20135;-70
2023/10/24 11:14:19;;;;;;;8.63;3.83;;;;;;;;;;5072210;28;20055;-71
2023/10/24 11:16:52;;;;;;;13.95;4.40;;;;;;;;;;5071917;28;20048;-70
2023/10/24 11:19:24;;;;;;;14.38;4.45;;;;;;;;;;5071887;28;20482;-69
2023/10/24 11:21:54;;;;;;;10.80;4.38;;;;;;;;;;5071854;28;20037;-71
2023/10/24 11:24:22;;;;;;;14.30;4.30;;;;;;;;;;5071799;28;20086;-69
2023/10/24 11:26:56;;;;;;;15.30;4.25;;;;;;;;;;5071617;28;20043;-69
2023/10/24 11:29:24;;;;;;;19.17;5.87;;;;;;;;;;5070731;28;20482;-68
2023/10/24 11:31:51;;;;;;;10.77;4.25;;;;;;;;;;5072278;28;20032;-70
2023/10/24 11:34:19;;;;;;;10.27;4.07;;;;;;;;;;5071791;28;20119;-69
2023/10/24 11:36:46;;;;;;;21.08;4.90;;;;;;;;;;5071046;28;20043;-70
2023/10/24 11:39:14;;;;;;;14.20;3.72;;;;;;;;;;5071702;28;20106;-69
2023/10/24 11:41:45;;;;;;;20.35;4.35;;;;;;;;;;5071888;28;20032;-70
2023/10/24 11:44:14;;;;;;;9.85;4.10;;;;;;;;;;5071862;28;20451;-71
2023/10/24 11:46:42;;;;;;;16.33;3.72;;;;;;;;;;5074865;28;20434;-70
2023/10/24 11:49:10;;;;;;;11.77;3.53;;;;;;;;;;5075452;28;20513;-71
2023/10/24 11:51:39;;;;;;;13.27;3.90;;;;;;;;;;5075472;28;20075;-69
2023/10/24 11:54:07;;;;;;;12.23;3.70;;;;;;;;;;5075121;28;20449;-69
2023/10/24 11:56:35;;;;;;;17.75;4.30;;;;;;;;;;5075307;28;20045;-70
2023/10/24 11:59:03;;;;;;;13.63;3.95;;;;;;;;;;5074944;28;20110;-69
2023/10/24 12:01:32;;;;;;;14.25;4.35;;;;;;;;;;5075014;28;20044;-69
2023/10/24 12:04:01;;;;;;;16.58;4.35;;;;;;;;;;5075110;28;20387;-70
2023/10/24 12:06:30;;;;;;;17.13;4.20;;;;;;;;;;5073744;28;20041;-69
2023/10/24 12:08:58;;;;;;;12.82;4.03;;;;;;;;;;5074896;28;20062;-70
2023/10/24 12:11:27;;;;;;;19.73;3.83;;;;;;;;;;5073686;28;20540;-69
2023/10/24 12:13:56;;;;;;;16.15;4.45;;;;;;;;;;5074748;28;20044;-69
2023/10/24 12:16:27;;;;;;;17.52;4.63;;;;;;;;;;5075179;28;20055;-69
2023/10/24 12:19:08;;;;;;;15.35;4.20;;;;;;;;;;5073856;28;20505;-70
2023/10/24 12:21:38;;;;;;;12.30;3.30;;;;;;;;;;5073801;28;20425;-69
2023/10/24 12:24:06;;;;;;;10.45;3.50;;;;;;;;;;5073313;28;20436;-70
2023/10/24 12:26:35;;;;;;;14.65;4.30;;;;;;;;;;5073737;28;20041;-68
2023/10/24 12:29:06;;;;;;;13.90;4.03;;;;;;;;;;5074559;28;20076;-69
2023/10/24 12:31:34;;;;;;;16.50;3.83;;;;;;;;;;5074875;28;20478;-68
2023/10/24 12:34:01;;;;;;;15.02;4.70;;;;;;;;;;5074461;28;20455;-70
2023/10/24 12:36:29;;;;;;;13.38;4.68;;;;;;;;;;5074463;28;20052;-70
2023/10/24 12:38:56;;;;;;;14.65;4.90;;;;;;;;;;5074808;28;20043;-69
2023/10/24 12:41:24;;;;;;;12.68;5.18;;;;;;;;;;5074212;28;20116;-69
2023/10/24 12:43:51;;;;;;;13.43;4.18;;;;;;;;;;5073010;28;20107;-70
2023/10/24 12:46:19;;;;;;;13.18;4.00;;;;;;;;;;5074351;28;20537;-71
2023/10/24 12:48:46;;;;;;;12.73;4.60;;;;;;;;;;5086070;28;20046;-71
2023/10/24 12:51:28;;;;;;;14.68;5.22;;;;;;;;;;5090147;28;20085;-70
2023/10/24 12:53:58;;;;;;;14.00;5.40;;;;;;;;;;5079475;28;20052;-69
2023/10/24 12:56:26;;;;;;;11.38;4.90;;;;;;;;;;5086605;28;20474;-66
2023/10/24 12:58:54;;;;;;;18.85;5.78;;;;;;;;;;5093699;28;20048;-66
2023/10/24 13:01:22;;;;;;;22.95;5.30;;;;;;;;;;5094022;28;20032;-66
2023/10/24 13:03:50;;;;;;;20.15;6.07;;;;;;;;;;5092723;28;20102;-66
2023/10/24 13:06:19;;;;;;;17.77;5.90;;;;;;;;;;5094185;28;20055;-65
2023/10/24 13:08:46;;;;;;;14.65;6.20;;;;;;;;;;5094041;28;20059;-66
2023/10/24 13:11:14;;;;;;;18.70;7.03;;;;;;;;;;5092548;28;20036;-67
2023/10/24 13:13:46;;;;;;;14.13;5.43;;;;;;;;;;5092571;28;20097;-68
2023/10/24 13:16:14;;;;;;;11.45;5.55;;;;;;;;;;5093858;28;20490;-66
2023/10/24 13:18:42;;;;;;;15.23;5.60;;;;;;;;;;5093696;28;20394;-67
2023/10/24 13:21:09;;;;;;;11.73;4.60;;;;;;;;;;5092736;28;20036;-66
2023/10/24 13:23:37;;;;;;;18.27;5.95;;;;;;;;;;5093668;28;20047;-65
2023/10/24 13:26:04;;;;;;;17.73;6.07;;;;;;;;;;5093969;28;20032;-66
2023/10/24 13:28:32;;;;;;;16.17;6.18;;;;;;;;;;5093598;28;20044;-66
2023/10/24 13:30:59;;;;;;;30.25;5.40;;;;;;;;;;5092332;28;20051;-69
2023/10/24 13:33:43;;;;;;;46.63;6.00;;;;;;;;;;5093781;28;20051;-67
2023/10/24 13:36:30;;;;;;;15.88;4.97;;;;;;;;;;5093508;28;20068;-67
2023/10/24 13:38:58;;;;;;;12.23;4.55;;;;;;;;;;5089017;28;20094;-67
2023/10/24 13:41:26;;;;;;;14.90;5.55;;;;;;;;;;5072687;28;20060;-66
2023/10/24 13:43:57;;;;;;;12.00;4.30;;;;;;;;;;5073214;28;20132;-66
2023/10/24 13:46:28;;;;;;;15.90;4.43;;;;;;;;;;5072958;28;20339;-65
2023/10/24 13:48:57;;;;;;;16.55;4.20;;;;;;;;;;5072879;28;20040;-65
2023/10/24 13:51:25;;;;;;;18.00;5.43;;;;;;;;;;5073019;28;20029;-64
2023/10/24 13:53:54;;;;;;;13.65;5.40;;;;;;;;;;5072771;28;20110;-66
2023/10/24 13:56:21;;;;;;;15.63;4.78;;;;;;;;;;5072846;28;20045;-65
2023/10/24 13:58:50;;;;;;;13.15;5.10;;;;;;;;;;5072939;28;20071;-68
2023/10/24 14:01:17;;;;;;;26.45;6.72;;;;;;;;;;5072820;28;20041;-62
2023/10/24 14:03:45;;;;;;;21.55;5.78;;;;;;;;;;5072755;28;20155;-62
2023/10/24 14:06:13;;;;;;;15.02;4.55;;;;;;;;;;5071355;28;20051;-63
2023/10/24 14:08:40;;;;;;;23.98;5.50;;;;;;;;;;5072252;28;20059;-63
2023/10/24 14:11:08;;;;;;;19.80;4.38;;;;;;;;;;5072592;28;20036;-64
2023/10/24 14:13:36;;;;;;;23.77;5.47;;;;;;;;;;5071599;28;20513;-63
2023/10/24 14:16:03;;;;;;;17.83;4.03;;;;;;;;;;5071522;28;20082;-63
2023/10/24 14:18:31;;;;;;;17.88;4.68;;;;;;;;;;5070871;28;20047;-63
2023/10/24 14:20:59;;;;;;;13.32;4.75;;;;;;;;;;5063175;28;20041;-63
2023/10/24 14:23:27;;;;;;;18.13;5.45;;;;;;;;;;5065471;28;20856;-63
2023/10/24 14:25:54;;;;;;;23.77;6.53;;;;;;;;;;5065550;28;20040;-64
2023/10/24 14:28:22;;;;;;;17.30;5.55;;;;;;;;;;5063660;28;20048;-63
2023/10/24 14:30:49;;;;;;;18.30;5.03;;;;;;;;;;5065677;28;20067;-66
2023/10/24 14:33:17;;;;;;;19.10;4.53;;;;;;;;;;5056053;28;20132;-64
2023/10/24 14:35:44;;;;;;;15.25;4.53;;;;;;;;;;5048331;28;20086;-64